sensor_id;sensor_type;location;lat;lon;timestamp;pressure;altitude;pressure_sealevel;temperature;humidity
72896;BME280;61036;53.224;6.554;2023-06-04T00:00:27;102354.88;;;17.07;100.00
72896;BME280;61036;53.224;6.554;2023-06-04T00:02:52;102360.19;;;17.08;100.00
72896;BME280;61036;53.224;6.554;2023-06-04T00:05:18;102362.41;;;17.03;100.00
72896;BME280;61036;53.224;6.554;2023-06-04T00:07:43;102360.16;;;16.97;100.00
72896;BME280;61036;53.224;6.554;2023-06-04T00:10:09;102348.00;;;16.90;100.00
72896;BME280;61036;53.224;6.554;2023-06-04T00:12:35;102357.44;;;16.97;100.00
72896;BME280;61036;53.224;6.554;2023-06-04T00:15:01;102355.19;;;16.91;100.00
72896;BME280;61036;53.224;6.554;2023-06-04T00:17:26;102359.66;;;16.68;100.00
72896;BME280;61036;53.224;6.554;2023-06-04T00:19:55;102360.13;;;16.86;100.00
72896;BME280;61036;53.224;6.554;2023-06-04T00:22:20;102365.28;;;16.78;100.00
72896;BME280;61036;53.224;6.554;2023-06-04T00:24:46;102361.84;;;16.87;100.00
72896;BME280;61036;53.224;6.554;2023-06-04T00:27:12;102364.94;;;16.82;100.00
72896;BME280;61036;53.224;6.554;2023-06-04T00:29:37;102357.41;;;16.86;100.00
72896;BME280;61036;53.224;6.554;2023-06-04T00:32:03;102359.75;;;16.66;100.00
72896;BME280;61036;53.224;6.554;2023-06-04T00:34:29;102365.22;;;16.66;100.00
72896;BME280;61036;53.224;6.554;2023-06-04T00:36:57;102348.38;;;16.85;100.00
72896;BME280;61036;53.224;6.554;2023-06-04T00:39:23;102362.63;;;16.65;100.00
72896;BME280;61036;53.224;6.554;2023-06-04T00:41:48;102360.19;;;16.49;100.00
72896;BME280;61036;53.224;6.554;2023-06-04T00:44:14;102365.09;;;16.68;100.00
72896;BME280;61036;53.224;6.554;2023-06-04T00:46:40;102355.25;;;16.78;100.00
72896;BME280;61036;53.224;6.554;2023-06-04T00:49:05;102358.19;;;16.75;100.00
72896;BME280;61036;53.224;6.554;2023-06-04T00:51:32;102361.38;;;16.58;100.00
72896;BME280;61036;53.224;6.554;2023-06-04T00:53:58;102360.84;;;16.77;100.00
72896;BME280;61036;53.224;6.554;2023-06-04T00:56:24;102358.63;;;16.58;100.00
72896;BME280;61036;53.224;6.554;2023-06-04T00:58:49;102358.03;;;16.65;100.00
72896;BME280;61036;53.224;6.554;2023-06-04T01:01:20;102363.00;;;16.96;100.00
72896;BME280;61036;53.224;6.554;2023-06-04T01:03:51;102356.94;;;16.92;100.00
72896;BME280;61036;53.224;6.554;2023-06-04T01:09:01;102364.25;;;16.91;100.00
72896;BME280;61036;53.224;6.554;2023-06-04T01:11:35;102354.44;;;16.89;100.00
72896;BME280;61036;53.224;6.554;2023-06-04T01:14:02;102360.13;;;16.62;100.00
72896;BME280;61036;53.224;6.554;2023-06-04T01:16:43;102359.41;;;16.71;100.00
72896;BME280;61036;53.224;6.554;2023-06-04T01:19:37;102359.13;;;16.63;100.00
72896;BME280;61036;53.224;6.554;2023-06-04T01:22:39;102362.16;;;16.71;100.00
72896;BME280;61036;53.224;6.554;2023-06-04T01:25:20;102362.78;;;16.75;100.00
72896;BME280;61036;53.224;6.554;2023-06-04T01:27:51;102361.69;;;16.53;100.00
72896;BME280;61036;53.224;6.554;2023-06-04T01:30:44;102357.50;;;16.84;100.00
72896;BME280;61036;53.224;6.554;2023-06-04T01:33:13;102358.91;;;16.66;100.00
72896;BME280;61036;53.224;6.554;2023-06-04T01:35:39;102367.53;;;16.60;100.00
72896;BME280;61036;53.224;6.554;2023-06-04T01:38:05;102360.31;;;16.48;100.00
72896;BME280;61036;53.224;6.554;2023-06-04T01:40:31;102356.09;;;16.43;100.00
72896;BME280;61036;53.224;6.554;2023-06-04T01:42:57;102353.06;;;16.59;100.00
72896;BME280;61036;53.224;6.554;2023-06-04T01:45:24;102351.19;;;16.60;100.00
72896;BME280;61036;53.224;6.554;2023-06-04T01:47:51;102344.25;;;16.56;100.00
72896;BME280;61036;53.224;6.554;2023-06-04T01:50:16;102356.00;;;16.08;100.00
72896;BME280;61036;53.224;6.554;2023-06-04T01:52:42;102346.69;;;16.48;100.00
72896;BME280;61036;53.224;6.554;2023-06-04T01:55:11;102344.78;;;16.61;100.00
72896;BME280;61036;53.224;6.554;2023-06-04T01:57:37;102345.13;;;16.32;100.00
72896;BME280;61036;53.224;6.554;2023-06-04T02:00:09;102356.47;;;16.74;100.00
72896;BME280;61036;53.224;6.554;2023-06-04T02:02:39;102356.72;;;16.47;100.00
72896;BME280;61036;53.224;6.554;2023-06-04T02:05:07;102345.94;;;16.45;100.00
72896;BME280;61036;53.224;6.554;2023-06-04T02:07:45;102344.97;;;16.46;100.00
72896;BME280;61036;53.224;6.554;2023-06-04T02:10:17;102347.84;;;16.56;100.00
72896;BME280;61036;53.224;6.554;2023-06-04T02:13:00;102348.28;;;16.74;100.00
72896;BME280;61036;53.224;6.554;2023-06-04T02:15:29;102351.56;;;16.31;100.00
72896;BME280;61036;53.224;6.554;2023-06-04T02:17:58;102357.66;;;16.35;100.00
72896;BME280;61036;53.224;6.554;2023-06-04T02:20:26;102345.28;;;16.18;100.00
72896;BME280;61036;53.224;6.554;2023-06-04T02:22:51;102355.00;;;16.09;100.00
72896;BME280;61036;53.224;6.554;2023-06-04T02:25:17;102356.03;;;16.32;100.00
72896;BME280;61036;53.224;6.554;2023-06-04T02:27:42;102351.44;;;16.33;100.00
72896;BME280;61036;53.224;6.554;2023-06-04T02:30:08;102360.38;;;16.35;100.00
72896;BME280;61036;53.224;6.554;2023-06-04T02:32:34;102355.47;;;16.27;100.00
72896;BME280;61036;53.224;6.554;2023-06-04T02:35:02;102362.25;;;16.45;100.00
72896;BME280;61036;53.224;6.554;2023-06-04T02:37:28;102364.97;;;16.21;100.00
72896;BME280;61036;53.224;6.554;2023-06-04T02:39:55;102359.13;;;16.15;100.00
72896;BME280;61036;53.224;6.554;2023-06-04T02:42:21;102362.88;;;16.01;100.00
72896;BME280;61036;53.224;6.554;2023-06-04T02:44:46;102368.28;;;16.14;100.00
72896;BME280;61036;53.224;6.554;2023-06-04T02:47:14;102355.63;;;16.26;100.00
72896;BME280;61036;53.224;6.554;2023-06-04T02:49:40;102363.22;;;15.96;100.00
72896;BME280;61036;53.224;6.554;2023-06-04T02:52:06;102368.06;;;16.17;100.00
72896;BME280;61036;53.224;6.554;2023-06-04T02:54:31;102352.22;;;15.98;100.00
72896;BME280;61036;53.224;6.554;2023-06-04T02:56:57;102358.84;;;16.07;100.00
72896;BME280;61036;53.224;6.554;2023-06-04T02:59:22;102362.81;;;15.90;100.00
72896;BME280;61036;53.224;6.554;2023-06-04T03:01:48;102358.41;;;16.00;100.00
72896;BME280;61036;53.224;6.554;2023-06-04T03:04:16;102355.09;;;15.84;100.00
72896;BME280;61036;53.224;6.554;2023-06-04T03:06:43;102351.25;;;15.99;100.00
72896;BME280;61036;53.224;6.554;2023-06-04T03:09:12;102346.56;;;15.88;100.00
72896;BME280;61036;53.224;6.554;2023-06-04T03:11:38;102348.38;;;15.76;100.00
72896;BME280;61036;53.224;6.554;2023-06-04T03:14:04;102347.69;;;15.86;100.00
72896;BME280;61036;53.224;6.554;2023-06-04T03:16:31;102351.53;;;15.70;100.00
72896;BME280;61036;53.224;6.554;2023-06-04T03:18:56;102345.19;;;15.70;100.00
72896;BME280;61036;53.224;6.554;2023-06-04T03:21:22;102351.50;;;15.58;100.00
72896;BME280;61036;53.224;6.554;2023-06-04T03:23:49;102352.69;;;15.79;100.00
72896;BME280;61036;53.224;6.554;2023-06-04T03:26:15;102358.81;;;15.70;100.00
72896;BME280;61036;53.224;6.554;2023-06-04T03:28:41;102350.09;;;15.52;100.00
72896;BME280;61036;53.224;6.554;2023-06-04T03:31:08;102354.63;;;15.64;100.00
72896;BME280;61036;53.224;6.554;2023-06-04T03:33:33;102357.72;;;15.72;100.00
72896;BME280;61036;53.224;6.554;2023-06-04T03:35:59;102350.94;;;15.91;100.00
72896;BME280;61036;53.224;6.554;2023-06-04T03:38:26;102342.34;;;15.84;100.00
72896;BME280;61036;53.224;6.554;2023-06-04T03:40:51;102346.22;;;16.06;100.00
72896;BME280;61036;53.224;6.554;2023-06-04T03:43:20;102345.25;;;15.94;100.00
72896;BME280;61036;53.224;6.554;2023-06-04T03:45:48;102348.13;;;15.92;100.00
72896;BME280;61036;53.224;6.554;2023-06-04T03:48:14;102353.97;;;15.99;100.00
72896;BME280;61036;53.224;6.554;2023-06-04T03:50:41;102351.78;;;16.04;100.00
72896;BME280;61036;53.224;6.554;2023-06-04T03:53:06;102351.38;;;15.85;100.00
72896;BME280;61036;53.224;6.554;2023-06-04T03:55:33;102352.00;;;16.01;100.00
72896;BME280;61036;53.224;6.554;2023-06-04T03:57:59;102343.94;;;15.99;100.00
72896;BME280;61036;53.224;6.554;2023-06-04T04:00:26;102347.44;;;16.26;100.00
72896;BME280;61036;53.224;6.554;2023-06-04T04:02:54;102351.88;;;16.03;100.00
72896;BME280;61036;53.224;6.554;2023-06-04T04:05:25;102348.75;;;15.96;100.00
72896;BME280;61036;53.224;6.554;2023-06-04T04:07:51;102349.16;;;16.03;100.00
72896;BME280;61036;53.224;6.554;2023-06-04T04:10:21;102347.97;;;16.07;100.00
72896;BME280;61036;53.224;6.554;2023-06-04T04:12:47;102358.16;;;16.16;100.00
72896;BME280;61036;53.224;6.554;2023-06-04T04:15:13;102356.34;;;16.04;100.00
72896;BME280;61036;53.224;6.554;2023-06-04T04:17:39;102348.25;;;16.15;100.00
72896;BME280;61036;53.224;6.554;2023-06-04T04:20:05;102353.66;;;16.28;100.00
72896;BME280;61036;53.224;6.554;2023-06-04T04:22:32;102353.66;;;16.28;100.00
72896;BME280;61036;53.224;6.554;2023-06-04T04:24:58;102362.91;;;16.25;100.00
72896;BME280;61036;53.224;6.554;2023-06-04T04:27:24;102353.13;;;16.22;100.00
72896;BME280;61036;53.224;6.554;2023-06-04T04:29:51;102353.44;;;16.31;100.00
72896;BME280;61036;53.224;6.554;2023-06-04T04:32:20;102363.97;;;16.35;100.00
72896;BME280;61036;53.224;6.554;2023-06-04T04:34:52;102364.41;;;16.53;100.00
72896;BME280;61036;53.224;6.554;2023-06-04T04:37:22;102363.50;;;16.41;100.00
72896;BME280;61036;53.224;6.554;2023-06-04T04:39:50;102364.81;;;16.36;100.00
72896;BME280;61036;53.224;6.554;2023-06-04T04:42:18;102358.31;;;16.74;100.00
72896;BME280;61036;53.224;6.554;2023-06-04T04:44:44;102360.13;;;16.38;100.00
72896;BME280;61036;53.224;6.554;2023-06-04T04:47:14;102357.81;;;16.44;100.00
72896;BME280;61036;53.224;6.554;2023-06-04T04:49:40;102353.44;;;16.55;100.00
72896;BME280;61036;53.224;6.554;2023-06-04T04:52:06;102346.84;;;16.81;100.00
72896;BME280;61036;53.224;6.554;2023-06-04T04:54:31;102349.47;;;17.52;100.00
72896;BME280;61036;53.224;6.554;2023-06-04T04:56:57;102341.63;;;17.47;100.00
72896;BME280;61036;53.224;6.554;2023-06-04T04:59:23;102347.34;;;18.00;100.00
72896;BME280;61036;53.224;6.554;2023-06-04T05:01:48;102347.47;;;17.76;100.00
72896;BME280;61036;53.224;6.554;2023-06-04T05:04:14;102351.97;;;17.66;100.00
72896;BME280;61036;53.224;6.554;2023-06-04T05:06:40;102347.47;;;17.65;100.00
72896;BME280;61036;53.224;6.554;2023-06-04T05:09:06;102353.31;;;17.94;100.00
72896;BME280;61036;53.224;6.554;2023-06-04T05:11:33;102352.31;;;17.95;100.00
72896;BME280;61036;53.224;6.554;2023-06-04T05:13:58;102352.34;;;18.39;100.00
72896;BME280;61036;53.224;6.554;2023-06-04T05:16:24;102362.63;;;18.46;100.00
72896;BME280;61036;53.224;6.554;2023-06-04T05:18:50;102362.88;;;18.87;100.00
72896;BME280;61036;53.224;6.554;2023-06-04T05:21:19;102353.50;;;19.10;100.00
72896;BME280;61036;53.224;6.554;2023-06-04T05:23:51;102353.00;;;18.95;100.00
72896;BME280;61036;53.224;6.554;2023-06-04T05:26:20;102360.84;;;18.89;100.00
72896;BME280;61036;53.224;6.554;2023-06-04T05:28:56;102355.88;;;19.15;100.00
72896;BME280;61036;53.224;6.554;2023-06-04T05:31:23;102352.50;;;19.84;100.00
72896;BME280;61036;53.224;6.554;2023-06-04T05:33:52;102361.78;;;20.12;100.00
72896;BME280;61036;53.224;6.554;2023-06-04T05:36:20;102354.09;;;19.56;100.00
72896;BME280;61036;53.224;6.554;2023-06-04T05:38:51;102362.19;;;19.36;100.00
72896;BME280;61036;53.224;6.554;2023-06-04T05:41:24;102363.94;;;18.95;100.00
72896;BME280;61036;53.224;6.554;2023-06-04T05:43:50;102359.34;;;19.17;100.00
72896;BME280;61036;53.224;6.554;2023-06-04T05:46:16;102365.53;;;18.98;100.00
72896;BME280;61036;53.224;6.554;2023-06-04T05:48:43;102373.59;;;19.00;100.00
72896;BME280;61036;53.224;6.554;2023-06-04T05:51:08;102372.66;;;19.10;100.00
72896;BME280;61036;53.224;6.554;2023-06-04T05:53:35;102371.78;;;18.89;100.00
72896;BME280;61036;53.224;6.554;2023-06-04T05:56:04;102369.06;;;19.10;100.00
72896;BME280;61036;53.224;6.554;2023-06-04T05:58:32;102362.00;;;19.07;100.00
72896;BME280;61036;53.224;6.554;2023-06-04T06:00:58;102364.94;;;18.62;100.00
72896;BME280;61036;53.224;6.554;2023-06-04T06:03:23;102363.75;;;19.08;100.00
72896;BME280;61036;53.224;6.554;2023-06-04T06:05:49;102374.06;;;18.84;100.00
72896;BME280;61036;53.224;6.554;2023-06-04T06:08:15;102377.84;;;18.60;100.00
72896;BME280;61036;53.224;6.554;2023-06-04T06:10:41;102373.19;;;19.25;100.00
72896;BME280;61036;53.224;6.554;2023-06-04T06:13:06;102366.59;;;19.07;100.00
72896;BME280;61036;53.224;6.554;2023-06-04T06:15:32;102374.88;;;18.95;100.00
72896;BME280;61036;53.224;6.554;2023-06-04T06:17:58;102365.56;;;19.50;100.00
72896;BME280;61036;53.224;6.554;2023-06-04T06:20:24;102372.06;;;19.07;100.00
72896;BME280;61036;53.224;6.554;2023-06-04T06:22:50;102369.31;;;19.07;100.00
72896;BME280;61036;53.224;6.554;2023-06-04T06:25:17;102363.69;;;19.71;100.00
72896;BME280;61036;53.224;6.554;2023-06-04T06:27:52;102370.31;;;19.69;100.00
72896;BME280;61036;53.224;6.554;2023-06-04T06:30:19;102366.00;;;19.76;100.00
72896;BME280;61036;53.224;6.554;2023-06-04T06:32:45;102374.75;;;19.49;100.00
72896;BME280;61036;53.224;6.554;2023-06-04T06:35:10;102368.94;;;19.11;100.00
72896;BME280;61036;53.224;6.554;2023-06-04T06:37:36;102376.97;;;19.85;100.00
72896;BME280;61036;53.224;6.554;2023-06-04T06:40:08;102381.09;;;20.01;100.00
72896;BME280;61036;53.224;6.554;2023-06-04T06:42:33;102379.13;;;19.82;100.00
72896;BME280;61036;53.224;6.554;2023-06-04T06:44:59;102377.25;;;19.82;100.00
72896;BME280;61036;53.224;6.554;2023-06-04T06:47:24;102373.88;;;20.00;100.00
72896;BME280;61036;53.224;6.554;2023-06-04T06:49:50;102382.56;;;20.15;100.00
72896;BME280;61036;53.224;6.554;2023-06-04T06:52:15;102384.16;;;20.17;100.00
72896;BME280;61036;53.224;6.554;2023-06-04T06:54:45;102379.78;;;20.05;100.00
72896;BME280;61036;53.224;6.554;2023-06-04T06:57:11;102381.88;;;20.42;100.00
72896;BME280;61036;53.224;6.554;2023-06-04T06:59:37;102388.22;;;20.42;100.00
72896;BME280;61036;53.224;6.554;2023-06-04T07:02:03;102384.41;;;20.64;100.00
72896;BME280;61036;53.224;6.554;2023-06-04T07:04:28;102390.28;;;20.50;100.00
72896;BME280;61036;53.224;6.554;2023-06-04T07:06:54;102388.16;;;19.73;100.00
72896;BME280;61036;53.224;6.554;2023-06-04T07:09:19;102385.28;;;20.05;100.00
72896;BME280;61036;53.224;6.554;2023-06-04T07:11:45;102400.78;;;20.35;100.00
72896;BME280;61036;53.224;6.554;2023-06-04T07:14:11;102396.22;;;20.84;100.00
72896;BME280;61036;53.224;6.554;2023-06-04T07:16:36;102402.88;;;20.52;96.02
72896;BME280;61036;53.224;6.554;2023-06-04T07:19:01;102399.69;;;20.57;94.53
72896;BME280;61036;53.224;6.554;2023-06-04T07:21:27;102399.25;;;20.81;95.42
72896;BME280;61036;53.224;6.554;2023-06-04T07:23:53;102405.41;;;20.44;97.69
72896;BME280;61036;53.224;6.554;2023-06-04T07:26:18;102399.34;;;20.50;95.64
72896;BME280;61036;53.224;6.554;2023-06-04T07:28:44;102402.47;;;20.76;97.98
72896;BME280;61036;53.224;6.554;2023-06-04T07:31:09;102404.31;;;20.95;93.95
72896;BME280;61036;53.224;6.554;2023-06-04T07:33:35;102405.34;;;21.04;90.46
72896;BME280;61036;53.224;6.554;2023-06-04T07:36:10;102401.56;;;20.57;93.28
72896;BME280;61036;53.224;6.554;2023-06-04T07:38:36;102402.44;;;20.96;90.92
72896;BME280;61036;53.224;6.554;2023-06-04T07:41:01;102403.03;;;21.09;91.94
72896;BME280;61036;53.224;6.554;2023-06-04T07:43:26;102397.66;;;21.37;93.30
72896;BME280;61036;53.224;6.554;2023-06-04T07:45:52;102400.97;;;21.87;95.22
72896;BME280;61036;53.224;6.554;2023-06-04T07:48:17;102394.94;;;20.98;91.50
72896;BME280;61036;53.224;6.554;2023-06-04T07:50:43;102406.75;;;21.84;89.23
72896;BME280;61036;53.224;6.554;2023-06-04T07:53:08;102400.25;;;21.48;91.79
72896;BME280;61036;53.224;6.554;2023-06-04T07:55:34;102400.53;;;21.82;89.07
72896;BME280;61036;53.224;6.554;2023-06-04T07:58:00;102398.44;;;21.66;90.19
72896;BME280;61036;53.224;6.554;2023-06-04T08:00:26;102407.19;;;20.55;91.97
72896;BME280;61036;53.224;6.554;2023-06-04T08:02:51;102402.13;;;21.85;92.47
72896;BME280;61036;53.224;6.554;2023-06-04T08:05:17;102406.97;;;22.01;92.48
72896;BME280;61036;53.224;6.554;2023-06-04T08:07:43;102407.16;;;21.52;92.55
72896;BME280;61036;53.224;6.554;2023-06-04T08:10:09;102410.63;;;21.44;90.67
72896;BME280;61036;53.224;6.554;2023-06-04T08:12:35;102403.66;;;21.97;93.05
72896;BME280;61036;53.224;6.554;2023-06-04T08:15:01;102417.22;;;22.08;87.39
72896;BME280;61036;53.224;6.554;2023-06-04T08:17:26;102413.31;;;22.01;93.19
72896;BME280;61036;53.224;6.554;2023-06-04T08:19:51;102411.78;;;22.72;86.01
72896;BME280;61036;53.224;6.554;2023-06-04T08:22:17;102411.47;;;23.37;84.10
72896;BME280;61036;53.224;6.554;2023-06-04T08:24:42;102412.44;;;24.06;80.71
72896;BME280;61036;53.224;6.554;2023-06-04T08:27:08;102402.16;;;24.83;72.51
72896;BME280;61036;53.224;6.554;2023-06-04T08:29:34;102414.28;;;24.39;73.58
72896;BME280;61036;53.224;6.554;2023-06-04T08:32:01;102422.00;;;24.86;74.09
72896;BME280;61036;53.224;6.554;2023-06-04T08:34:27;102410.63;;;25.47;62.59
72896;BME280;61036;53.224;6.554;2023-06-04T08:36:53;102413.06;;;25.25;60.08
72896;BME280;61036;53.224;6.554;2023-06-04T08:39:19;102408.72;;;25.06;60.26
72896;BME280;61036;53.224;6.554;2023-06-04T08:41:48;102417.56;;;25.98;62.98
72896;BME280;61036;53.224;6.554;2023-06-04T08:44:16;102412.50;;;25.54;58.24
72896;BME280;61036;53.224;6.554;2023-06-04T08:46:43;102410.84;;;26.01;57.37
72896;BME280;61036;53.224;6.554;2023-06-04T08:49:08;102416.13;;;24.73;51.90
72896;BME280;61036;53.224;6.554;2023-06-04T08:51:36;102413.09;;;26.37;54.68
72896;BME280;61036;53.224;6.554;2023-06-04T08:54:06;102412.06;;;27.15;47.17
72896;BME280;61036;53.224;6.554;2023-06-04T08:56:36;102411.19;;;25.98;53.24
72896;BME280;61036;53.224;6.554;2023-06-04T08:59:03;102414.75;;;26.15;56.29
72896;BME280;61036;53.224;6.554;2023-06-04T09:01:31;102412.00;;;25.43;52.13
72896;BME280;61036;53.224;6.554;2023-06-04T09:04:00;102409.69;;;25.71;51.78
72896;BME280;61036;53.224;6.554;2023-06-04T09:06:26;102415.63;;;26.46;46.19
72896;BME280;61036;53.224;6.554;2023-06-04T09:08:54;102420.81;;;26.41;46.04
72896;BME280;61036;53.224;6.554;2023-06-04T09:11:22;102418.63;;;25.81;48.71
72896;BME280;61036;53.224;6.554;2023-06-04T09:13:49;102424.50;;;26.96;52.16
72896;BME280;61036;53.224;6.554;2023-06-04T09:16:15;102413.22;;;25.32;45.28
72896;BME280;61036;53.224;6.554;2023-06-04T09:18:41;102415.25;;;26.58;48.87
72896;BME280;61036;53.224;6.554;2023-06-04T09:21:08;102416.63;;;27.46;48.63
72896;BME280;61036;53.224;6.554;2023-06-04T09:26:09;102416.19;;;27.19;45.97
72896;BME280;61036;53.224;6.554;2023-06-04T09:28:35;102414.41;;;27.26;45.57
72896;BME280;61036;53.224;6.554;2023-06-04T09:31:02;102407.63;;;27.06;48.40
72896;BME280;61036;53.224;6.554;2023-06-04T09:33:28;102410.66;;;26.42;50.08
72896;BME280;61036;53.224;6.554;2023-06-04T09:35:57;102409.72;;;26.18;53.61
72896;BME280;61036;53.224;6.554;2023-06-04T09:38:32;102420.88;;;26.33;55.47
72896;BME280;61036;53.224;6.554;2023-06-04T09:40:57;102414.16;;;25.72;51.02
72896;BME280;61036;53.224;6.554;2023-06-04T09:43:25;102425.84;;;26.07;49.82
72896;BME280;61036;53.224;6.554;2023-06-04T09:45:54;102423.16;;;26.30;46.94
72896;BME280;61036;53.224;6.554;2023-06-04T09:48:20;102429.88;;;27.12;47.30
72896;BME280;61036;53.224;6.554;2023-06-04T09:50:47;102429.91;;;25.88;48.53
72896;BME280;61036;53.224;6.554;2023-06-04T09:53:19;102428.63;;;26.38;52.60
72896;BME280;61036;53.224;6.554;2023-06-04T09:56:01;102431.03;;;26.02;53.68
72896;BME280;61036;53.224;6.554;2023-06-04T09:58:29;102431.66;;;25.48;55.18
72896;BME280;61036;53.224;6.554;2023-06-04T10:01:03;102419.31;;;25.99;52.72
72896;BME280;61036;53.224;6.554;2023-06-04T10:03:36;102423.38;;;25.64;54.43
72896;BME280;61036;53.224;6.554;2023-06-04T10:06:04;102432.88;;;25.04;56.43
72896;BME280;61036;53.224;6.554;2023-06-04T10:08:31;102428.53;;;25.75;54.71
72896;BME280;61036;53.224;6.554;2023-06-04T10:11:01;102422.59;;;26.03;56.48
72896;BME280;61036;53.224;6.554;2023-06-04T10:13:29;102433.16;;;25.75;61.98
72896;BME280;61036;53.224;6.554;2023-06-04T10:15:59;102438.84;;;25.98;64.46
72896;BME280;61036;53.224;6.554;2023-06-04T10:18:27;102429.91;;;25.06;54.64
72896;BME280;61036;53.224;6.554;2023-06-04T10:20:55;102422.84;;;25.12;57.03
72896;BME280;61036;53.224;6.554;2023-06-04T10:23:21;102431.63;;;24.74;61.14
72896;BME280;61036;53.224;6.554;2023-06-04T10:25:49;102440.63;;;25.09;62.47
72896;BME280;61036;53.224;6.554;2023-06-04T10:28:20;102437.63;;;24.53;69.44
72896;BME280;61036;53.224;6.554;2023-06-04T10:30:47;102444.25;;;24.34;70.38
72896;BME280;61036;53.224;6.554;2023-06-04T10:33:13;102455.09;;;24.70;65.94
72896;BME280;61036;53.224;6.554;2023-06-04T10:35:39;102448.34;;;24.30;62.73
72896;BME280;61036;53.224;6.554;2023-06-04T10:38:10;102453.31;;;24.53;73.85
72896;BME280;61036;53.224;6.554;2023-06-04T10:40:37;102439.41;;;24.87;65.42
72896;BME280;61036;53.224;6.554;2023-06-04T10:43:07;102446.06;;;24.17;67.86
72896;BME280;61036;53.224;6.554;2023-06-04T10:45:33;102458.13;;;24.16;69.14
72896;BME280;61036;53.224;6.554;2023-06-04T10:48:00;102452.22;;;24.46;72.84
72896;BME280;61036;53.224;6.554;2023-06-04T10:50:26;102447.00;;;25.01;66.79
72896;BME280;61036;53.224;6.554;2023-06-04T10:52:53;102444.75;;;24.97;60.81
72896;BME280;61036;53.224;6.554;2023-06-04T10:55:19;102450.19;;;24.13;66.66
72896;BME280;61036;53.224;6.554;2023-06-04T10:58:00;102450.31;;;25.38;65.98
72896;BME280;61036;53.224;6.554;2023-06-04T11:00:42;102448.72;;;24.35;60.04
72896;BME280;61036;53.224;6.554;2023-06-04T11:03:10;102450.44;;;24.36;64.67
72896;BME280;61036;53.224;6.554;2023-06-04T11:05:36;102443.47;;;23.82;68.39
72896;BME280;61036;53.224;6.554;2023-06-04T11:08:04;102450.78;;;24.25;67.63
72896;BME280;61036;53.224;6.554;2023-06-04T11:10:38;102448.56;;;24.96;62.04
72896;BME280;61036;53.224;6.554;2023-06-04T11:13:05;102446.41;;;24.57;59.75
72896;BME280;61036;53.224;6.554;2023-06-04T11:18:03;102456.28;;;24.33;58.09
72896;BME280;61036;53.224;6.554;2023-06-04T11:20:28;102439.03;;;23.63;66.18
72896;BME280;61036;53.224;6.554;2023-06-04T11:22:55;102438.16;;;23.80;67.06
72896;BME280;61036;53.224;6.554;2023-06-04T11:25:25;102441.94;;;24.56;69.38
72896;BME280;61036;53.224;6.554;2023-06-04T11:27:52;102434.28;;;24.41;63.03
72896;BME280;61036;53.224;6.554;2023-06-04T11:30:18;102437.75;;;25.19;56.61
72896;BME280;61036;53.224;6.554;2023-06-04T11:32:44;102435.44;;;24.90;57.93
72896;BME280;61036;53.224;6.554;2023-06-04T11:35:10;102433.84;;;24.62;67.59
72896;BME280;61036;53.224;6.554;2023-06-04T11:37:37;102434.41;;;24.74;62.46
72896;BME280;61036;53.224;6.554;2023-06-04T11:40:14;102430.53;;;24.08;61.44
72896;BME280;61036;53.224;6.554;2023-06-04T11:42:40;102438.84;;;24.59;60.99
72896;BME280;61036;53.224;6.554;2023-06-04T11:45:19;102429.78;;;24.32;54.74
72896;BME280;61036;53.224;6.554;2023-06-04T11:47:51;102428.06;;;23.97;58.76
72896;BME280;61036;53.224;6.554;2023-06-04T11:50:17;102419.22;;;25.03;62.80
72896;BME280;61036;53.224;6.554;2023-06-04T11:52:43;102428.84;;;24.66;67.99
72896;BME280;61036;53.224;6.554;2023-06-04T11:55:09;102427.41;;;24.46;68.27
72896;BME280;61036;53.224;6.554;2023-06-04T11:57:36;102425.91;;;24.17;56.92
72896;BME280;61036;53.224;6.554;2023-06-04T12:00:02;102426.97;;;24.16;64.89
72896;BME280;61036;53.224;6.554;2023-06-04T12:02:29;102426.13;;;24.99;61.14
72896;BME280;61036;53.224;6.554;2023-06-04T12:04:55;102425.53;;;24.54;54.96
72896;BME280;61036;53.224;6.554;2023-06-04T12:07:21;102421.94;;;24.11;59.95
72896;BME280;61036;53.224;6.554;2023-06-04T12:09:52;102429.16;;;24.12;62.68
72896;BME280;61036;53.224;6.554;2023-06-04T12:12:22;102431.31;;;24.85;61.24
72896;BME280;61036;53.224;6.554;2023-06-04T12:14:57;102429.56;;;25.09;59.90
72896;BME280;61036;53.224;6.554;2023-06-04T12:17:23;102433.47;;;24.49;59.56
72896;BME280;61036;53.224;6.554;2023-06-04T12:19:51;102428.03;;;24.98;57.79
72896;BME280;61036;53.224;6.554;2023-06-04T12:22:17;102423.41;;;25.23;63.74
72896;BME280;61036;53.224;6.554;2023-06-04T12:24:56;102424.34;;;25.80;60.19
72896;BME280;61036;53.224;6.554;2023-06-04T12:27:25;102425.09;;;25.08;57.01
72896;BME280;61036;53.224;6.554;2023-06-04T12:29:59;102419.78;;;25.06;58.50
72896;BME280;61036;53.224;6.554;2023-06-04T12:32:25;102428.91;;;24.99;69.90
72896;BME280;61036;53.224;6.554;2023-06-04T12:34:51;102425.97;;;25.41;63.82
72896;BME280;61036;53.224;6.554;2023-06-04T12:37:17;102415.78;;;25.09;56.98
72896;BME280;61036;53.224;6.554;2023-06-04T12:39:43;102421.19;;;25.19;60.30
72896;BME280;61036;53.224;6.554;2023-06-04T12:42:09;102416.50;;;25.44;59.06
72896;BME280;61036;53.224;6.554;2023-06-04T12:44:40;102427.50;;;24.70;67.77
72896;BME280;61036;53.224;6.554;2023-06-04T12:47:07;102426.53;;;24.03;71.83
72896;BME280;61036;53.224;6.554;2023-06-04T12:49:33;102416.50;;;23.67;69.73
72896;BME280;61036;53.224;6.554;2023-06-04T12:51:59;102418.88;;;24.90;67.58
72896;BME280;61036;53.224;6.554;2023-06-04T12:54:24;102415.28;;;24.22;71.85